Terminal Aerodrome Forecast
Issued by NWS Shreveport, LA

Home | Current Version | Previous Version | Text Only | Print | Product List | Glossary On
Versions: 1 2 3 4 5 6 7 8 9 10 11 12 13 14 15 16 17 18 19 20 21 22 23 24 25 26 27 28 29 30
000
FTUS44 KSHV 251253 AAA
TAFLFK
TAF AMD
KLFK 251253Z 2513/2612 05005KT P6SM VCSH SCT015 SCT080 OVC100
      TEMPO 2513/2516 5SM -TSRA BR OVC015CB
     FM251600 07006KT P6SM VCTS OVC030CB
     FM251800 07006KT P6SM OVC040
     FM260000 08006KT P6SM BKN045 BKN100=

USA.gov is the U.S. government's official web portal to all federal, state and local government web resources and services.